Date,TemperatureHighF,TemperatureAvgF,TemperatureLowF,DewpointHighF,DewpointAvgF,DewpointLowF,HumidityHigh,HumidityAvg,HumidityLow,PressureMaxIn,PressureMinIn,WindSpeedMaxMPH,WindSpeedAvgMPH,GustSpeedMaxMPH,PrecipitationSumIn
2013-2-1,12.7,5.7,0.5,9.0,0.9,-5.0,90,80,73,30.17,29.89,12,6,16,0.00
2013-2-2,12.4,6.8,-4.8,9.0,1.8,-8.0,90,80,64,30.12,30.07,12,4,14,0.00
2013-2-3,18.5,9.1,-6.0,15.0,5.5,-10.0,90,85,75,30.08,29.82,13,5,18,0.00
2013-2-4,10.1,3.2,-4.7,4.0,-2.1,-9.0,88,78,70,30.07,29.97,9,3,13,0.00
2013-2-5,22.3,13.5,-0.9,20.0,10.1,-5.0,91,86,75,29.98,29.75,14,4,20,0.00
2013-2-6,13.1,5.2,-5.5,9.0,0.6,-9.0,89,81,72,30.37,29.99,14,4,17,0.00
2013-2-7,11.7,9.3,5.5,9.0,6.7,3.0,90,89,87,30.40,30.28,22,11,27,0.00
2013-2-8,18.9,11.3,1.3,13.0,6.9,-3.0,90,82,76,30.47,30.25,15,7,22,0.00
2013-2-9,24.7,6.6,-10.0,21.0,2.9,-14.0,95,84,76,30.54,30.31,10,3,18,0.00
2013-2-10,34.2,27.8,19.4,31.0,24.3,17.0,95,87,77,30.32,29.70,23,7,27,0.01
2013-2-11,37.9,34.3,27.6,37.0,32.7,24.0,97,94,86,29.69,29.39,20,8,32,0.04
2013-2-12,28.0,26.2,24.8,24.0,22.0,20.0,88,84,76,29.93,29.68,20,8,28,0.04
2013-2-13,34.7,28.7,21.9,30.0,25.2,20.0,94,86,81,29.87,29.69,11,3,17,0.00
2013-2-14,34.9,30.2,23.2,33.0,28.8,22.0,97,94,91,29.75,29.65,18,4,24,0.02
2013-2-15,25.2,15.8,12.3,24.0,11.0,7.0,94,82,70,30.15,29.75,21,10,25,0.02
2013-2-16,12.6,5.3,-3.9,9.0,-0.1,-7.0,89,79,62,30.22,30.13,9,2,13,0.00
2013-2-17,12.6,-0.8,-12.2,4.0,-5.8,-16.0,88,79,62,30.30,30.21,8,2,12,0.00
2013-2-18,33.1,25.3,7.2,32.0,20.4,4.0,95,81,73,30.23,29.61,27,10,38,0.00
2013-2-19,36.9,28.2,10.0,36.0,25.5,4.0,95,89,77,29.76,29.22,29,13,37,1.30
2013-2-20,12.1,7.8,3.5,6.0,1.8,-3.0,82,76,73,30.36,29.77,26,17,30,0.00
2013-2-21,18.4,8.5,1.8,14.0,3.4,-5.0,93,80,74,30.54,30.36,24,8,27,0.00
2013-2-22,28.1,18.0,10.4,27.0,15.6,8.0,94,89,84,30.47,29.91,23,12,32,0.00
2013-2-23,32.6,29.2,26.0,30.0,27.4,24.0,95,92,84,29.90,29.81,8,2,11,0.01
2013-2-24,33.2,28.0,23.1,27.0,24.6,20.0,94,87,75,30.16,29.86,15,6,17,0.03
2013-2-25,32.0,28.9,25.6,28.0,25.5,23.0,91,87,78,30.25,30.16,5,2,8,0.02
2013-2-26,31.7,29.7,28.4,28.0,26.3,25.0,93,87,79,30.25,29.92,19,8,23,0.00
2013-2-27,33.4,31.1,28.8,31.0,29.1,26.0,95,92,86,29.91,29.74,17,10,23,0.01
2013-2-28,33.2,27.0,16.7,31.0,23.8,13.0,93,87,80,30.13,29.73,19,11,22,0.01